General Aviation Weather

Text Reports

Enter one or more of the following location identifiers separated by a space:

Zip Code, Four-Character ICAO or Three-Character IATA airport codes.

METAR - Aviation Routine Weather Report
K4A6 - Scottsboro, Alabama
Updated at 12:55 PM GMT on April 24, 2014 (7:55 AM CDT):
METAR K4A6 241255Z AUTO 07003KT 10SM CLR 10/06 A3003 RMK AO2
TAF - Terminal Area Forecast
K4A6 - Scottsboro, Alabama
Updated at 12:55 PM GMT on April 24, 2014 (7:55 AM CDT):
No TAF is currently available for this location.
Decoded:
No decoded TAF is available.
PIREP - Pilot Weather Report
K4A6 - Scottsboro, Alabama
Updated at 12:55 PM GMT on April 24, 2014 (7:55 AM CDT):
No PIREP is currently available for this location.
AIRMET - Airmens Meteorological Information
K4A6 - Scottsboro, Alabama
Updated at 12:55 PM GMT on April 24, 2014 (7:55 AM CDT):
No AIRMET is currently available for this location.
SIGMET - Significant Meteorological Information
K4A6 - Scottsboro, Alabama
Updated at 12:55 PM GMT on April 24, 2014 (7:55 AM CDT):
No SIGMET is currently available for this location.
NOTAM - Notice to Airmen
K4A6 - Scottsboro, Alabama
Updated at 12:55 PM GMT on April 24, 2014 (7:55 AM CDT):
No NOTAM is currently available for this location.
Forecast Area
K4A6 - Scottsboro, Alabama
Updated at 12:55 PM GMT on April 24, 2014 (7:55 AM CDT):
No NOTAM is currently available for this location.
Aviation Weather Maps